createdAt,value
2023-03-12T00:02:19.488Z,0.40
2023-03-12T00:04:50.040Z,0.40
2023-03-12T00:07:18.710Z,0.40
2023-03-12T00:09:47.284Z,0.40
2023-03-12T00:12:15.990Z,0.50
2023-03-12T00:14:47.243Z,0.50
2023-03-12T00:17:15.861Z,0.50
2023-03-12T00:19:45.436Z,0.50
2023-03-12T00:22:16.993Z,0.50
2023-03-12T00:24:45.554Z,0.50
2023-03-12T00:27:14.126Z,0.60
2023-03-12T00:29:42.936Z,0.60
2023-03-12T00:32:11.736Z,0.60
2023-03-12T00:34:40.298Z,0.60
2023-03-12T00:37:09.347Z,0.60
2023-03-12T00:39:39.594Z,0.70
2023-03-12T00:42:08.372Z,0.70
2023-03-12T00:44:37.052Z,0.70
2023-03-12T00:47:05.881Z,0.80
2023-03-12T00:49:34.477Z,0.80
2023-03-12T00:52:03.071Z,0.80
2023-03-12T00:54:31.807Z,0.90
2023-03-12T00:57:02.025Z,0.90
2023-03-12T00:59:30.731Z,0.90
2023-03-12T01:01:59.311Z,1.00
2023-03-12T01:04:27.895Z,1.00
2023-03-12T01:06:57.313Z,1.00
2023-03-12T01:09:25.936Z,1.10
2023-03-12T01:11:54.479Z,1.10
2023-03-12T01:14:26.806Z,1.10
2023-03-12T01:16:55.604Z,1.10
2023-03-12T01:19:24.157Z,1.10
2023-03-12T01:21:52.741Z,1.10
2023-03-12T01:24:21.302Z,1.10
2023-03-12T01:26:49.950Z,1.10
2023-03-12T01:29:18.478Z,1.10
2023-03-12T01:31:48.588Z,1.10
2023-03-12T01:34:17.077Z,1.10
2023-03-12T01:36:47.872Z,1.10
2023-03-12T01:39:16.866Z,1.10
2023-03-12T01:41:45.529Z,1.10
2023-03-12T01:44:16.221Z,1.10
2023-03-12T01:46:47.443Z,1.10
2023-03-12T01:49:18.793Z,1.20
2023-03-12T01:51:51.451Z,1.20
2023-03-12T01:54:24.209Z,1.20
2023-03-12T01:56:53.264Z,1.20
2023-03-12T01:59:24.817Z,1.20
2023-03-12T02:01:54.839Z,1.20
2023-03-12T02:04:26.377Z,1.30
2023-03-12T02:07:01.225Z,1.20
2023-03-12T02:09:30.197Z,1.20
2023-03-12T02:11:59.052Z,1.20
2023-03-12T02:14:27.832Z,1.30
2023-03-12T02:16:57.936Z,1.30
2023-03-12T02:19:35.711Z,1.30
2023-03-12T02:22:04.996Z,1.30
2023-03-12T02:24:39.928Z,1.30
2023-03-12T02:27:11.193Z,1.30
2023-03-12T02:29:44.514Z,1.40
2023-03-12T02:32:22.160Z,1.40
2023-03-12T02:34:50.991Z,1.40
2023-03-12T02:37:20.474Z,1.40
2023-03-12T02:39:56.394Z,1.40
2023-03-12T02:42:26.810Z,1.50
2023-03-12T02:44:56.108Z,1.50
2023-03-12T02:47:25.208Z,1.50
2023-03-12T02:49:54.269Z,1.50
2023-03-12T02:52:22.872Z,1.50
2023-03-12T02:54:51.826Z,1.50
2023-03-12T02:57:20.880Z,1.50
2023-03-12T02:59:50.849Z,1.50
2023-03-12T03:02:19.782Z,1.40
2023-03-12T03:04:48.346Z,1.40
2023-03-12T03:07:17.024Z,1.40
2023-03-12T03:09:45.584Z,1.40
2023-03-12T03:12:14.107Z,1.30
2023-03-12T03:14:42.905Z,1.20
2023-03-12T03:17:13.193Z,1.20
2023-03-12T03:19:41.858Z,1.20
2023-03-12T03:22:10.602Z,1.10
2023-03-12T03:24:39.088Z,1.00
2023-03-12T03:27:07.693Z,0.90
2023-03-12T03:29:36.321Z,0.90
2023-03-12T03:32:05.636Z,0.80
2023-03-12T03:34:35.567Z,0.80
2023-03-12T03:37:04.061Z,0.80
2023-03-12T03:39:32.989Z,0.80
2023-03-12T03:42:01.570Z,0.80
2023-03-12T03:44:30.612Z,0.80
2023-03-12T03:46:59.424Z,0.90
2023-03-12T03:49:28.004Z,0.90
2023-03-12T03:51:57.892Z,1.00
2023-03-12T03:54:26.365Z,0.90
2023-03-12T03:56:55.174Z,0.90
2023-03-12T03:59:25.420Z,0.90
2023-03-12T04:01:53.860Z,0.90
2023-03-12T04:04:22.566Z,0.90
2023-03-12T04:06:51.346Z,0.90
2023-03-12T04:09:21.836Z,1.00
2023-03-12T04:11:50.492Z,1.00
2023-03-12T04:14:18.983Z,0.90
2023-03-12T04:16:47.481Z,0.90
2023-03-12T04:19:15.973Z,0.90
2023-03-12T04:21:44.822Z,0.90
2023-03-12T04:24:16.914Z,0.90
2023-03-12T04:26:46.858Z,1.00
2023-03-12T04:29:16.626Z,1.00
2023-03-12T04:31:45.142Z,1.10
2023-03-12T04:34:14.604Z,1.10
2023-03-12T04:36:44.045Z,1.20
2023-03-12T04:39:12.772Z,1.20
2023-03-12T04:41:44.220Z,1.30
2023-03-12T04:44:14.383Z,1.40
2023-03-12T04:46:43.310Z,1.40
2023-03-12T04:49:11.946Z,1.40
2023-03-12T04:51:40.410Z,1.50
2023-03-12T04:54:08.997Z,1.50
2023-03-12T04:56:37.824Z,1.60
2023-03-12T04:59:07.064Z,1.60
2023-03-12T05:01:38.321Z,1.60
2023-03-12T05:04:07.519Z,1.60
2023-03-12T05:06:36.468Z,1.70
2023-03-12T05:09:05.549Z,1.70
2023-03-12T05:11:34.028Z,1.70
2023-03-12T05:14:03.001Z,1.70
2023-03-12T05:16:31.568Z,1.70
2023-03-12T05:19:02.467Z,1.80
2023-03-12T05:21:31.587Z,1.80
2023-03-12T05:24:01.840Z,1.80
2023-03-12T05:26:33.014Z,1.80
2023-03-12T05:29:02.534Z,1.80
2023-03-12T05:31:35.189Z,1.90
2023-03-12T05:34:06.463Z,1.90
2023-03-12T05:36:35.133Z,1.90
2023-03-12T05:39:04.104Z,1.90
2023-03-12T05:41:32.852Z,1.90
2023-03-12T05:44:01.446Z,1.90
2023-03-12T05:46:30.376Z,2.00
2023-03-12T05:48:59.364Z,2.00
2023-03-12T05:51:29.244Z,2.00
2023-03-12T05:53:59.467Z,2.00
2023-03-12T05:56:28.108Z,2.00
2023-03-12T05:58:56.646Z,2.00
2023-03-12T06:01:27.821Z,2.10
2023-03-12T06:03:56.910Z,2.20
2023-03-12T06:06:25.431Z,2.20
2023-03-12T06:08:55.448Z,2.20
2023-03-12T06:11:24.046Z,2.20
2023-03-12T06:13:52.648Z,2.20
2023-03-12T06:16:23.201Z,2.30
2023-03-12T06:18:55.052Z,2.30
2023-03-12T06:21:25.658Z,2.40
2023-03-12T06:23:55.738Z,2.40
2023-03-12T06:26:24.980Z,2.40
2023-03-12T06:28:57.196Z,2.50
2023-03-12T06:31:26.061Z,2.50
2023-03-12T06:33:54.936Z,2.50
2023-03-12T06:36:24.720Z,2.60
2023-03-12T06:38:57.213Z,2.60
2023-03-12T06:41:26.092Z,2.70
2023-03-12T06:43:54.652Z,2.70
2023-03-12T06:46:25.350Z,2.80
2023-03-12T06:48:53.962Z,2.90
2023-03-12T06:51:22.500Z,2.90
2023-03-12T06:53:51.344Z,2.90
2023-03-12T06:56:21.359Z,3.00
2023-03-12T06:58:50.298Z,3.00
2023-03-12T07:01:18.809Z,3.00
2023-03-12T07:03:47.731Z,3.10
2023-03-12T07:06:17.270Z,3.00
2023-03-12T07:08:46.351Z,3.10
2023-03-12T07:11:15.220Z,3.10
2023-03-12T07:13:46.157Z,3.10
2023-03-12T07:16:14.777Z,3.10
2023-03-12T07:18:43.567Z,3.10
2023-03-12T07:21:12.166Z,3.10
2023-03-12T07:23:40.777Z,3.10
2023-03-12T07:26:09.328Z,3.10
2023-03-12T07:28:38.336Z,3.10
2023-03-12T07:31:08.751Z,3.10
2023-03-12T07:33:37.568Z,3.00
2023-03-12T07:36:07.046Z,3.10
2023-03-12T07:38:35.802Z,3.10
2023-03-12T07:41:06.301Z,3.00
2023-03-12T07:43:35.166Z,3.00
2023-03-12T07:46:03.803Z,3.00
2023-03-12T07:48:33.686Z,3.10
2023-03-12T07:51:02.247Z,3.10
2023-03-12T07:53:30.870Z,3.10
2023-03-12T07:55:59.516Z,3.10
2023-03-12T07:58:28.210Z,3.10
2023-03-12T08:00:58.017Z,3.20
2023-03-12T08:03:26.781Z,3.20
2023-03-12T08:06:02.470Z,3.20
2023-03-12T08:08:34.155Z,3.30
2023-03-12T08:11:04.979Z,3.30
2023-03-12T08:13:33.592Z,3.30
2023-03-12T08:16:02.245Z,3.40
2023-03-12T08:18:30.932Z,3.50
2023-03-12T08:21:01.210Z,3.50
2023-03-12T08:23:29.954Z,3.60
2023-03-12T08:26:00.031Z,3.60
2023-03-12T08:28:28.648Z,3.70
2023-03-12T08:31:00.856Z,3.70
2023-03-12T08:33:29.520Z,3.80
2023-03-12T08:35:58.450Z,3.90
2023-03-12T08:38:28.848Z,4.00
2023-03-12T08:40:58.475Z,4.10
2023-03-12T08:43:30.189Z,4.10
2023-03-12T08:46:03.373Z,4.10
2023-03-12T08:48:33.816Z,4.10
2023-03-12T08:51:04.419Z,4.10
2023-03-12T08:53:35.838Z,4.20
2023-03-12T08:56:05.420Z,4.20
2023-03-12T08:58:34.139Z,4.30
2023-03-12T09:01:02.861Z,4.30
2023-03-12T09:03:31.715Z,4.40
2023-03-12T09:06:10.064Z,4.40
2023-03-12T09:08:40.496Z,4.50
2023-03-12T09:11:11.036Z,4.60
2023-03-12T09:13:58.811Z,4.60
2023-03-12T09:16:29.078Z,4.60
2023-03-12T09:18:57.717Z,4.60
2023-03-12T09:21:27.296Z,4.70
2023-03-12T09:23:58.218Z,4.70
2023-03-12T09:26:26.934Z,4.70
2023-03-12T09:28:55.558Z,4.70
2023-03-12T09:31:24.209Z,4.70
2023-03-12T09:33:53.074Z,4.80
2023-03-12T09:36:21.868Z,4.80
2023-03-12T09:38:50.606Z,4.90
2023-03-12T09:41:23.178Z,4.90
2023-03-12T09:43:58.399Z,4.90
2023-03-12T09:46:32.447Z,4.90
2023-03-12T09:49:06.730Z,5.00
2023-03-12T09:51:40.310Z,5.00
2023-03-12T09:54:25.054Z,4.90
2023-03-12T09:56:59.733Z,5.00
2023-03-12T09:59:28.544Z,5.00
2023-03-12T10:02:00.158Z,5.00
2023-03-12T10:04:58.122Z,5.00
2023-03-12T10:07:34.510Z,5.00
2023-03-12T10:10:18.279Z,5.00
2023-03-12T10:13:07.631Z,5.10
2023-03-12T10:15:45.771Z,5.10
2023-03-12T10:18:27.510Z,5.10
2023-03-12T10:21:11.699Z,5.20
2023-03-12T10:24:05.967Z,5.30
2023-03-12T10:26:42.015Z,5.40
2023-03-12T10:29:18.740Z,5.50
2023-03-12T10:31:55.746Z,5.50
2023-03-12T10:34:31.042Z,5.60
2023-03-12T10:37:04.533Z,5.70
2023-03-12T10:39:33.101Z,5.70
2023-03-12T10:42:02.770Z,5.70
2023-03-12T10:44:33.087Z,5.70
2023-03-12T10:47:09.416Z,5.80
2023-03-12T10:49:39.457Z,5.80
2023-03-12T10:52:16.742Z,5.80
2023-03-12T10:54:47.715Z,5.90
2023-03-12T10:57:17.974Z,5.90
2023-03-12T10:59:50.639Z,5.90
2023-03-12T11:02:34.947Z,5.90
2023-03-12T11:05:19.931Z,5.90
2023-03-12T11:07:48.610Z,5.90
2023-03-12T11:10:24.371Z,5.90
2023-03-12T11:13:01.753Z,5.90
2023-03-12T11:15:40.734Z,6.00
2023-03-12T11:18:32.287Z,5.90
2023-03-12T11:21:20.340Z,6.00
2023-03-12T11:24:07.493Z,6.00
2023-03-12T11:26:41.955Z,6.00
2023-03-12T11:29:24.232Z,6.00
2023-03-12T11:32:05.248Z,6.10
2023-03-12T11:34:38.761Z,6.10
2023-03-12T11:37:13.749Z,6.20
2023-03-12T11:39:56.709Z,6.20
2023-03-12T11:42:36.787Z,6.30
2023-03-12T11:45:15.664Z,6.40
2023-03-12T11:48:01.009Z,6.50
2023-03-12T11:50:46.562Z,6.50
2023-03-12T11:53:32.300Z,6.60
2023-03-12T11:56:20.116Z,6.60
2023-03-12T11:59:18.683Z,6.70
2023-03-12T12:02:01.481Z,6.80
2023-03-12T12:04:54.601Z,6.90
2023-03-12T12:07:37.336Z,7.00
2023-03-12T12:10:11.505Z,7.00
2023-03-12T12:12:49.997Z,7.10
2023-03-12T12:15:30.730Z,7.30
2023-03-12T12:18:12.393Z,7.40
2023-03-12T12:20:48.997Z,7.60
2023-03-12T12:23:20.127Z,7.60
2023-03-12T12:26:12.167Z,7.70
2023-03-12T12:29:00.759Z,7.70
2023-03-12T12:31:40.693Z,7.80
2023-03-12T12:34:44.799Z,7.90
2023-03-12T12:37:32.742Z,7.90
2023-03-12T12:40:12.713Z,8.00
2023-03-12T12:42:52.472Z,8.00
2023-03-12T12:45:23.239Z,8.00
2023-03-12T12:47:58.449Z,8.10
2023-03-12T12:50:33.135Z,8.10
2023-03-12T12:53:14.528Z,8.20
2023-03-12T12:55:52.006Z,8.20
2023-03-12T12:58:27.601Z,8.20
2023-03-12T13:00:59.971Z,8.30
2023-03-12T13:03:30.923Z,8.40
2023-03-12T13:06:02.320Z,8.50
2023-03-12T13:09:15.856Z,8.60
2023-03-12T13:11:48.122Z,8.70
2023-03-12T13:14:36.738Z,8.70
2023-03-12T13:17:21.210Z,8.70
2023-03-12T13:20:00.651Z,8.80
2023-03-12T13:22:55.950Z,8.80
2023-03-12T13:25:41.257Z,8.90
2023-03-12T13:28:42.532Z,9.00
2023-03-12T13:31:38.850Z,9.20
2023-03-12T13:34:46.151Z,9.20
2023-03-12T13:37:32.227Z,9.30
2023-03-12T13:40:11.018Z,9.50
2023-03-12T13:42:43.451Z,9.60
2023-03-12T13:45:32.157Z,9.70
2023-03-12T13:48:06.078Z,9.80
2023-03-12T13:50:42.885Z,9.90
2023-03-12T13:53:21.805Z,10.00
2023-03-12T13:56:02.668Z,10.10
2023-03-12T13:58:33.675Z,10.20
2023-03-12T14:01:06.202Z,10.30
2023-03-12T14:03:40.344Z,10.40
2023-03-12T14:06:11.977Z,10.40
2023-03-12T14:08:55.364Z,10.40
2023-03-12T14:11:53.935Z,10.50
2023-03-12T14:14:49.275Z,10.60
2023-03-12T14:17:20.479Z,10.70
2023-03-12T14:19:53.504Z,10.80
2023-03-12T14:22:24.105Z,10.80
2023-03-12T14:24:57.928Z,10.90
2023-03-12T14:27:30.705Z,10.90
2023-03-12T14:30:12.772Z,11.00
2023-03-12T14:32:44.123Z,11.00
2023-03-12T14:35:22.054Z,11.00
2023-03-12T14:37:58.699Z,10.90
2023-03-12T14:40:37.630Z,11.00
2023-03-12T14:43:21.692Z,10.90
2023-03-12T14:45:56.075Z,11.00
2023-03-12T14:48:28.897Z,10.90
2023-03-12T14:51:03.834Z,10.90
2023-03-12T14:53:36.633Z,10.90
2023-03-12T14:56:11.672Z,10.90
2023-03-12T14:58:45.549Z,11.00
2023-03-12T15:01:21.819Z,11.00
2023-03-12T15:03:53.053Z,11.00
2023-03-12T15:06:28.793Z,11.00
2023-03-12T15:08:58.168Z,11.00
2023-03-12T15:11:29.533Z,11.10
2023-03-12T15:14:05.274Z,11.00
2023-03-12T15:16:36.776Z,11.00
2023-03-12T15:19:06.391Z,11.00
2023-03-12T15:21:37.431Z,11.00
2023-03-12T15:24:08.301Z,11.00
2023-03-12T15:26:40.816Z,11.00
2023-03-12T15:29:28.293Z,11.00
2023-03-12T15:32:00.873Z,11.00
2023-03-12T15:34:33.402Z,11.00
2023-03-12T15:37:04.906Z,11.00
2023-03-12T15:39:35.685Z,11.00
2023-03-12T15:42:13.315Z,10.90
2023-03-12T15:44:47.380Z,10.90
2023-03-12T15:47:21.243Z,10.90
2023-03-12T15:49:53.647Z,10.90
2023-03-12T15:52:33.835Z,10.90
2023-03-12T15:55:10.992Z,10.80
2023-03-12T15:57:49.690Z,10.80
2023-03-12T16:00:24.017Z,10.80
2023-03-12T16:02:57.230Z,10.80
2023-03-12T16:05:30.587Z,10.80
2023-03-12T16:08:02.127Z,10.80
2023-03-12T16:10:41.253Z,10.80
2023-03-12T16:13:15.734Z,10.80
2023-03-12T16:15:47.736Z,10.80
2023-03-12T16:18:19.814Z,10.80
2023-03-12T16:20:51.375Z,10.80
2023-03-12T16:23:21.436Z,10.80
2023-03-12T16:25:52.912Z,10.80
2023-03-12T16:28:23.623Z,10.70
2023-03-12T16:30:53.381Z,10.80
2023-03-12T16:33:25.858Z,10.70
2023-03-12T16:35:56.005Z,10.70
2023-03-12T16:38:25.369Z,10.70
2023-03-12T16:40:55.729Z,10.70
2023-03-12T16:43:28.428Z,10.70
2023-03-12T16:45:58.051Z,10.60
2023-03-12T16:48:28.880Z,10.60
2023-03-12T16:50:59.109Z,10.60
2023-03-12T16:53:28.210Z,10.60
2023-03-12T16:55:59.925Z,10.60
2023-03-12T16:58:29.685Z,10.60
2023-03-12T17:01:00.221Z,10.60
2023-03-12T17:03:36.391Z,10.60
2023-03-12T17:06:10.133Z,10.50
2023-03-12T17:08:39.839Z,10.50
2023-03-12T17:11:17.066Z,10.50
2023-03-12T17:13:48.231Z,10.40
2023-03-12T17:16:19.518Z,10.40
2023-03-12T17:18:50.131Z,10.40
2023-03-12T17:21:20.363Z,10.30
2023-03-12T17:23:51.495Z,10.30
2023-03-12T17:26:21.020Z,10.30
2023-03-12T17:28:49.823Z,10.20
2023-03-12T17:31:18.787Z,10.20
2023-03-12T17:33:48.138Z,10.20
2023-03-12T17:36:18.469Z,10.20
2023-03-12T17:38:49.660Z,10.20
2023-03-12T17:41:26.476Z,10.20
2023-03-12T17:43:58.676Z,10.20
2023-03-12T17:46:27.516Z,10.20
2023-03-12T17:48:56.503Z,10.20
2023-03-12T17:51:27.283Z,10.10
2023-03-12T17:53:57.159Z,10.20
2023-03-12T17:56:26.150Z,10.20
2023-03-12T17:58:54.820Z,10.10
2023-03-12T18:01:23.578Z,10.10
2023-03-12T18:03:53.174Z,10.10
2023-03-12T18:06:22.790Z,10.10
2023-03-12T18:08:53.418Z,10.10
2023-03-12T18:11:23.123Z,10.10
2023-03-12T18:13:52.107Z,10.10
2023-03-12T18:16:23.447Z,10.10
2023-03-12T18:19:02.997Z,10.10
2023-03-12T18:21:32.061Z,10.10
2023-03-12T18:24:13.494Z,10.10
2023-03-12T18:26:43.435Z,10.10
2023-03-12T18:29:12.916Z,10.10
2023-03-12T18:31:42.405Z,10.10
2023-03-12T18:34:11.608Z,10.10
2023-03-12T18:36:40.525Z,10.00
2023-03-12T18:39:11.647Z,10.00
2023-03-12T18:41:41.997Z,10.00
2023-03-12T18:44:11.230Z,10.00
2023-03-12T18:46:40.346Z,10.00
2023-03-12T18:49:12.722Z,10.00
2023-03-12T18:51:41.935Z,10.00
2023-03-12T18:54:14.115Z,10.00
2023-03-12T18:56:43.152Z,10.00
2023-03-12T18:59:14.839Z,10.00
2023-03-12T19:01:44.467Z,10.00
2023-03-12T19:04:18.176Z,10.00
2023-03-12T19:06:51.132Z,10.00
2023-03-12T19:09:22.095Z,10.00
2023-03-12T19:11:53.446Z,9.90
2023-03-12T19:14:23.216Z,9.90
2023-03-12T19:16:52.495Z,9.90
2023-03-12T19:19:21.944Z,9.90
2023-03-12T19:21:51.299Z,9.90
2023-03-12T19:24:21.807Z,9.80
2023-03-12T19:26:50.846Z,9.80
2023-03-12T19:29:20.165Z,9.90
2023-03-12T19:31:49.526Z,9.80
2023-03-12T19:34:20.366Z,9.80
2023-03-12T19:36:49.600Z,9.90
2023-03-12T19:39:21.596Z,9.90
2023-03-12T19:41:52.895Z,9.90
2023-03-12T19:44:21.919Z,9.90
2023-03-12T19:46:50.868Z,9.90
2023-03-12T19:49:20.226Z,9.90
2023-03-12T19:51:49.981Z,9.90
2023-03-12T19:54:18.748Z,9.90
2023-03-12T19:56:51.310Z,10.00
2023-03-12T19:59:21.992Z,9.90
2023-03-12T20:01:50.973Z,9.90
2023-03-12T20:04:20.318Z,9.90
2023-03-12T20:06:49.791Z,9.90
2023-03-12T20:09:18.741Z,9.90
2023-03-12T20:11:48.011Z,9.90
2023-03-12T20:14:17.277Z,9.90
2023-03-12T20:16:47.729Z,9.90
2023-03-12T20:19:17.726Z,9.90
2023-03-12T20:21:48.519Z,9.90
2023-03-12T20:24:17.739Z,9.90
2023-03-12T20:26:47.353Z,9.90
2023-03-12T20:29:16.546Z,9.90
2023-03-12T20:31:55.829Z,9.90
2023-03-12T20:34:25.061Z,9.90
2023-03-12T20:36:54.112Z,9.90
2023-03-12T20:39:23.925Z,9.90
2023-03-12T20:41:52.896Z,9.90
2023-03-12T20:44:22.234Z,9.90
2023-03-12T20:46:53.441Z,9.90
2023-03-12T20:49:22.561Z,9.90
2023-03-12T20:51:51.487Z,9.90
2023-03-12T20:54:21.293Z,10.00
2023-03-12T20:56:50.202Z,10.00
2023-03-12T20:59:19.346Z,10.00
2023-03-12T21:01:48.269Z,10.00
2023-03-12T21:04:18.777Z,10.00
2023-03-12T21:06:47.907Z,10.00
2023-03-12T21:09:17.200Z,10.10
2023-03-12T21:11:46.269Z,10.00
2023-03-12T21:14:15.408Z,10.00
2023-03-12T21:16:44.567Z,10.00
2023-03-12T21:19:13.588Z,10.00
2023-03-12T21:21:43.865Z,10.00
2023-03-12T21:24:13.008Z,10.00
2023-03-12T21:26:41.721Z,9.90
2023-03-12T21:29:10.601Z,9.90
2023-03-12T21:31:39.674Z,9.90
2023-03-12T21:34:09.652Z,9.90
2023-03-12T21:36:38.645Z,9.90
2023-03-12T21:39:09.058Z,9.90
2023-03-12T21:41:39.080Z,9.80
2023-03-12T21:44:08.273Z,9.80
2023-03-12T21:46:37.278Z,9.80
2023-03-12T21:49:06.540Z,9.80
2023-03-12T21:51:38.385Z,9.70
2023-03-12T21:54:10.165Z,9.70
2023-03-12T21:56:39.154Z,9.70
2023-03-12T21:59:08.096Z,9.70
2023-03-12T22:01:39.856Z,9.70
2023-03-12T22:04:09.174Z,9.70
2023-03-12T22:06:38.069Z,9.70
2023-03-12T22:09:08.670Z,9.70
2023-03-12T22:11:37.589Z,9.70
2023-03-12T22:14:06.670Z,9.60
2023-03-12T22:16:35.583Z,9.60
2023-03-12T22:19:06.414Z,9.60
2023-03-12T22:21:35.413Z,9.60
2023-03-12T22:24:04.341Z,9.60
2023-03-12T22:26:34.645Z,9.50
2023-03-12T22:29:03.542Z,9.60
2023-03-12T22:31:32.605Z,9.50
2023-03-12T22:34:01.247Z,9.50
2023-03-12T22:36:30.350Z,9.50
2023-03-12T22:38:59.557Z,9.50
2023-03-12T22:41:30.232Z,9.50
2023-03-12T22:44:05.281Z,9.60
2023-03-12T22:46:34.481Z,9.60
2023-03-12T22:49:05.097Z,9.60
2023-03-12T22:51:34.795Z,9.60
2023-03-12T22:54:03.565Z,9.70
2023-03-12T22:56:32.504Z,9.70
2023-03-12T22:59:03.065Z,9.70
2023-03-12T23:01:31.948Z,9.70
2023-03-12T23:04:04.210Z,9.70
2023-03-12T23:06:33.481Z,9.70
2023-03-12T23:09:02.498Z,9.70
2023-03-12T23:11:31.359Z,9.70
2023-03-12T23:14:00.584Z,9.70
2023-03-12T23:16:30.711Z,9.70
2023-03-12T23:19:01.478Z,9.70
2023-03-12T23:21:30.137Z,9.70
2023-03-12T23:24:00.254Z,9.70
2023-03-12T23:26:30.031Z,9.70
2023-03-12T23:29:00.389Z,9.70
2023-03-12T23:31:30.979Z,9.60
2023-03-12T23:33:59.953Z,9.60
2023-03-12T23:36:29.427Z,9.60
2023-03-12T23:38:58.209Z,9.60
2023-03-12T23:41:29.387Z,9.60
2023-03-12T23:43:58.983Z,9.60
2023-03-12T23:46:29.552Z,9.60
2023-03-12T23:48:59.245Z,9.60
2023-03-12T23:51:30.351Z,9.60
2023-03-12T23:54:00.696Z,9.60
2023-03-12T23:56:34.657Z,9.60
2023-03-12T23:59:03.677Z,9.60
